createdAt,value
2023-04-02T00:01:24.097Z,7.88
2023-04-02T00:03:59.319Z,5.35
2023-04-02T00:06:33.595Z,4.93
2023-04-02T00:09:02.800Z,6.22
2023-04-02T00:11:35.202Z,6.28
2023-04-02T00:14:02.294Z,6.60
2023-04-02T00:16:29.416Z,6.07
2023-04-02T00:18:57.995Z,5.90
2023-04-02T00:21:25.865Z,7.20
2023-04-02T00:23:53.886Z,7.97
2023-04-02T00:26:21.785Z,7.22
2023-04-02T00:28:48.294Z,8.95
2023-04-02T00:31:16.105Z,6.25
2023-04-02T00:33:42.558Z,6.93
2023-04-02T00:36:09.387Z,7.35
2023-04-02T00:38:36.007Z,6.15
2023-04-02T00:41:03.763Z,5.65
2023-04-02T00:43:36.282Z,6.32
2023-04-02T00:46:05.466Z,7.20
2023-04-02T00:48:32.024Z,7.70
2023-04-02T00:51:01.175Z,6.13
2023-04-02T00:53:29.306Z,7.10
2023-04-02T00:55:57.421Z,6.95
2023-04-02T00:58:28.707Z,9.27
2023-04-02T01:00:55.340Z,8.63
2023-04-02T01:03:28.913Z,7.72
2023-04-02T01:06:10.824Z,7.85
2023-04-02T01:09:06.960Z,6.55
2023-04-02T01:11:52.057Z,9.07
2023-04-02T01:14:38.709Z,7.47
2023-04-02T01:17:18.528Z,8.48
2023-04-02T01:19:58.527Z,6.95
2023-04-02T01:22:36.802Z,7.90
2023-04-02T01:25:06.490Z,5.78
2023-04-02T01:27:39.713Z,6.82
2023-04-02T01:30:07.370Z,6.25
2023-04-02T01:32:34.463Z,7.15
2023-04-02T01:35:01.389Z,8.32
2023-04-02T01:37:45.001Z,7.97
2023-04-02T01:40:17.696Z,7.60
2023-04-02T01:43:05.739Z,7.43
2023-04-02T01:45:34.929Z,7.10
2023-04-02T01:48:05.975Z,5.80
2023-04-02T01:50:37.154Z,7.55
2023-04-02T01:53:05.171Z,6.43
2023-04-02T01:55:34.802Z,7.35
2023-04-02T01:58:02.204Z,7.30
2023-04-02T02:00:30.263Z,7.05
2023-04-02T02:02:59.513Z,8.90
2023-04-02T02:05:26.458Z,7.60
2023-04-02T02:07:56.226Z,9.40
2023-04-02T02:10:27.826Z,8.10
2023-04-02T02:12:54.318Z,8.35
2023-04-02T02:15:22.086Z,6.70
2023-04-02T02:17:49.728Z,7.50
2023-04-02T02:20:16.540Z,7.90
2023-04-02T02:22:47.246Z,7.63
2023-04-02T02:25:15.916Z,6.03
2023-04-02T02:27:46.502Z,10.68
2023-04-02T02:30:20.192Z,5.28
2023-04-02T02:32:49.867Z,7.47
2023-04-02T02:35:20.529Z,8.23
2023-04-02T02:37:52.647Z,7.38
2023-04-02T02:40:26.676Z,9.27
2023-04-02T02:42:56.740Z,6.07
2023-04-02T02:45:26.408Z,5.13
2023-04-02T02:47:54.312Z,5.65
2023-04-02T02:50:26.474Z,6.85
2023-04-02T02:52:55.273Z,5.22
2023-04-02T02:55:24.040Z,6.53
2023-04-02T02:58:06.796Z,6.65
2023-04-02T03:00:40.939Z,6.07
2023-04-02T03:03:09.643Z,6.47
2023-04-02T03:05:37.757Z,5.50
2023-04-02T03:08:18.360Z,6.32
2023-04-02T03:10:55.695Z,5.78
2023-04-02T03:13:24.743Z,6.93
2023-04-02T03:15:54.794Z,6.88
2023-04-02T03:18:35.251Z,16.58
2023-04-02T03:21:07.532Z,10.35
2023-04-02T03:23:36.634Z,5.88
2023-04-02T03:26:09.289Z,8.40
2023-04-02T03:28:45.243Z,7.63
2023-04-02T03:31:18.166Z,7.25
2023-04-02T03:33:51.108Z,7.70
2023-04-02T03:36:18.933Z,6.95
2023-04-02T03:38:49.503Z,7.68
2023-04-02T03:41:21.302Z,8.02
2023-04-02T03:43:50.211Z,6.95
2023-04-02T03:46:26.322Z,7.45
2023-04-02T03:48:58.974Z,5.50
2023-04-02T03:51:52.841Z,6.32
2023-04-02T03:54:19.433Z,6.57
2023-04-02T03:56:47.476Z,6.97
2023-04-02T03:59:39.662Z,5.88
2023-04-02T04:02:10.988Z,6.85
2023-04-02T04:04:40.173Z,5.70
2023-04-02T04:07:16.322Z,7.03
2023-04-02T04:09:45.904Z,6.53
2023-04-02T04:12:27.603Z,7.25
2023-04-02T04:15:21.387Z,7.30
2023-04-02T04:17:54.057Z,7.10
2023-04-02T04:20:29.571Z,6.10
2023-04-02T04:23:08.874Z,5.63
2023-04-02T04:25:37.151Z,6.28
2023-04-02T04:28:29.251Z,6.63
2023-04-02T04:31:04.129Z,6.30
2023-04-02T04:33:42.739Z,7.78
2023-04-02T04:36:21.596Z,8.27
2023-04-02T04:38:55.241Z,7.85
2023-04-02T04:43:59.796Z,5.82
2023-04-02T04:46:38.686Z,5.90
2023-04-02T04:49:18.662Z,5.35
2023-04-02T04:51:47.966Z,6.95
2023-04-02T04:54:15.402Z,6.40
2023-04-02T04:56:49.947Z,7.45
2023-04-02T04:59:25.049Z,7.43
2023-04-02T05:01:59.937Z,6.50
2023-04-02T05:04:40.374Z,6.50
2023-04-02T05:07:13.983Z,6.05
2023-04-02T05:09:58.496Z,6.03
2023-04-02T05:12:25.555Z,5.82
2023-04-02T05:14:56.578Z,5.20
2023-04-02T05:17:39.659Z,4.88
2023-04-02T05:20:09.761Z,6.60
2023-04-02T05:22:56.286Z,6.47
2023-04-02T05:25:24.134Z,6.72
2023-04-02T05:27:52.784Z,8.50
2023-04-02T05:30:20.215Z,5.72
2023-04-02T05:32:50.338Z,6.43
2023-04-02T05:35:20.098Z,6.13
2023-04-02T05:37:47.383Z,6.30
2023-04-02T05:40:21.559Z,6.45
2023-04-02T05:42:50.420Z,5.93
2023-04-02T05:45:43.098Z,5.25
2023-04-02T05:48:12.881Z,5.50
2023-04-02T05:50:44.049Z,7.85
2023-04-02T05:53:21.493Z,6.35
2023-04-02T05:55:56.051Z,4.70
2023-04-02T05:58:46.252Z,4.85
2023-04-02T06:01:21.724Z,4.47
2023-04-02T06:03:56.215Z,4.93
2023-04-02T06:06:26.542Z,5.55
2023-04-02T06:08:57.750Z,6.43
2023-04-02T06:11:31.095Z,4.45
2023-04-02T06:13:58.420Z,5.78
2023-04-02T06:16:30.951Z,5.82
2023-04-02T06:18:57.847Z,7.88
2023-04-02T06:21:25.789Z,4.78
2023-04-02T06:24:01.549Z,6.60
2023-04-02T06:26:35.223Z,5.82
2023-04-02T06:29:20.605Z,4.45
2023-04-02T06:31:49.474Z,4.03
2023-04-02T06:34:20.059Z,5.00
2023-04-02T06:37:35.492Z,4.47
2023-04-02T06:40:28.480Z,4.78
2023-04-02T06:42:59.733Z,5.95
2023-04-02T06:45:52.072Z,5.35
2023-04-02T06:48:31.243Z,4.70
2023-04-02T06:51:07.001Z,5.60
2023-04-02T06:53:38.641Z,9.10
2023-04-02T06:56:24.719Z,6.65
2023-04-02T06:58:51.383Z,4.80
2023-04-02T07:01:22.379Z,3.85
2023-04-02T07:03:48.996Z,8.27
2023-04-02T07:06:24.215Z,6.50
2023-04-02T07:08:53.358Z,8.77
2023-04-02T07:11:22.307Z,4.97
2023-04-02T07:13:51.532Z,5.65
2023-04-02T07:16:25.413Z,4.20
2023-04-02T07:18:52.885Z,4.63
2023-04-02T07:21:19.607Z,5.35
2023-04-02T07:23:46.346Z,5.00
2023-04-02T07:26:14.103Z,5.68
2023-04-02T07:28:40.612Z,5.63
2023-04-02T07:31:17.873Z,7.07
2023-04-02T07:33:45.030Z,5.28
2023-04-02T07:36:15.991Z,4.90
2023-04-02T07:38:42.787Z,7.20
2023-04-02T07:41:09.425Z,4.88
2023-04-02T07:43:36.007Z,6.00
2023-04-02T07:46:03.063Z,4.78
2023-04-02T07:48:29.592Z,9.77
2023-04-02T07:50:56.067Z,5.88
2023-04-02T07:53:34.756Z,7.13
2023-04-02T07:56:03.002Z,4.07
2023-04-02T07:58:29.890Z,5.50
2023-04-02T08:00:56.796Z,6.80
2023-04-02T08:03:23.457Z,6.40
2023-04-02T08:05:51.231Z,4.95
2023-04-02T08:08:17.802Z,5.15
2023-04-02T08:10:44.238Z,5.57
2023-04-02T08:13:10.707Z,5.22
2023-04-02T08:15:37.528Z,6.38
2023-04-02T08:18:04.327Z,4.72
2023-04-02T08:20:31.530Z,5.90
2023-04-02T08:22:58.226Z,10.05
2023-04-02T08:25:24.717Z,3.40
2023-04-02T08:27:51.333Z,4.07
2023-04-02T08:30:17.922Z,4.75
2023-04-02T08:32:44.459Z,4.55
2023-04-02T08:35:12.226Z,4.95
2023-04-02T08:37:38.718Z,6.63
2023-04-02T08:40:07.329Z,4.10
2023-04-02T08:42:36.852Z,4.53
2023-04-02T08:45:25.012Z,4.93
2023-04-02T08:47:53.417Z,6.70
2023-04-02T08:50:19.861Z,5.75
2023-04-02T08:52:46.633Z,5.90
2023-04-02T08:55:27.437Z,5.65
2023-04-02T08:57:56.838Z,5.93
2023-04-02T09:00:26.512Z,4.38
2023-04-02T09:02:56.415Z,4.40
2023-04-02T09:05:31.849Z,5.88
2023-04-02T09:07:59.380Z,5.68
2023-04-02T09:10:37.246Z,3.88
2023-04-02T09:13:05.465Z,4.28
2023-04-02T09:15:34.323Z,3.50
2023-04-02T09:18:06.856Z,4.45
2023-04-02T09:20:33.367Z,2.58
2023-04-02T09:22:59.799Z,3.72
2023-04-02T09:25:28.182Z,3.17
2023-04-02T09:27:56.055Z,2.97
2023-04-02T09:30:29.669Z,4.55
2023-04-02T09:33:00.844Z,37.45
2023-04-02T09:35:28.723Z,10.90
2023-04-02T09:38:07.123Z,11.77
2023-04-02T09:40:42.273Z,10.00
2023-04-02T09:43:13.236Z,8.55
2023-04-02T09:45:41.090Z,6.78
2023-04-02T09:48:37.833Z,6.50
2023-04-02T09:51:04.282Z,4.10
2023-04-02T09:53:33.593Z,5.55
2023-04-02T09:56:27.101Z,3.28
2023-04-02T09:59:13.751Z,13.07
2023-04-02T10:01:41.599Z,25.85
2023-04-02T10:04:27.002Z,59.88
2023-04-02T10:09:26.237Z,32.45
2023-04-02T10:11:53.876Z,14.77
2023-04-02T10:14:26.507Z,11.88
2023-04-02T10:17:11.786Z,13.10
2023-04-02T10:19:40.374Z,13.43
2023-04-02T10:22:12.975Z,12.45
2023-04-02T10:24:39.774Z,7.30
2023-04-02T10:27:18.289Z,8.93
2023-04-02T10:30:05.390Z,4.38
2023-04-02T10:32:39.258Z,7.30
2023-04-02T10:35:11.612Z,8.13
2023-04-02T10:37:40.856Z,3.80
2023-04-02T10:40:10.527Z,3.90
2023-04-02T10:42:43.195Z,6.10
2023-04-02T10:45:28.349Z,7.00
2023-04-02T10:48:04.794Z,4.57
2023-04-02T10:50:57.574Z,6.90
2023-04-02T10:53:31.453Z,5.00
2023-04-02T10:56:01.319Z,8.40
2023-04-02T10:58:30.090Z,4.07
2023-04-02T11:01:01.926Z,4.65
2023-04-02T11:03:36.984Z,5.47
2023-04-02T11:06:14.156Z,4.88
2023-04-02T11:08:45.798Z,3.78
2023-04-02T11:11:14.416Z,3.30
2023-04-02T11:13:43.937Z,2.90
2023-04-02T11:16:12.187Z,3.22
2023-04-02T11:18:38.731Z,3.75
2023-04-02T11:21:25.231Z,4.07
2023-04-02T11:23:56.875Z,3.70
2023-04-02T11:26:32.478Z,5.85
2023-04-02T11:29:06.002Z,3.17
2023-04-02T11:31:33.262Z,1.85
2023-04-02T11:33:59.835Z,3.75
2023-04-02T11:36:45.050Z,4.10
2023-04-02T11:39:17.532Z,3.03
2023-04-02T11:42:01.410Z,3.80
2023-04-02T11:44:27.947Z,4.57
2023-04-02T11:47:14.344Z,3.42
2023-04-02T11:49:56.423Z,2.75
2023-04-02T11:52:43.256Z,5.60
2023-04-02T11:55:15.524Z,2.25
2023-04-02T11:57:45.013Z,2.15
2023-04-02T12:00:13.156Z,2.88
2023-04-02T12:02:48.748Z,2.65
2023-04-02T12:05:19.622Z,2.70
2023-04-02T12:07:46.721Z,4.28
2023-04-02T12:10:20.752Z,3.40
2023-04-02T12:12:47.541Z,1.45
2023-04-02T12:15:32.669Z,3.20
2023-04-02T12:18:25.690Z,3.10
2023-04-02T12:20:53.389Z,0.82
2023-04-02T12:23:21.992Z,2.85
2023-04-02T12:25:54.299Z,2.15
2023-04-02T12:28:22.312Z,2.30
2023-04-02T12:30:49.685Z,1.85
2023-04-02T12:33:17.337Z,3.63
2023-04-02T12:35:44.255Z,1.40
2023-04-02T12:38:30.897Z,1.55
2023-04-02T12:40:58.757Z,2.13
2023-04-02T12:43:25.435Z,1.30
2023-04-02T12:45:53.112Z,2.33
2023-04-02T12:48:20.014Z,1.33
2023-04-02T12:50:46.836Z,2.38
2023-04-02T12:53:19.974Z,1.75
2023-04-02T12:55:48.408Z,2.92
2023-04-02T12:58:29.225Z,1.35
2023-04-02T13:01:11.383Z,2.35
2023-04-02T13:03:37.977Z,1.20
2023-04-02T13:06:17.566Z,3.30
2023-04-02T13:08:44.006Z,3.75
2023-04-02T13:11:10.680Z,2.50
2023-04-02T13:13:38.376Z,2.00
2023-04-02T13:16:17.254Z,2.70
2023-04-02T13:18:45.379Z,2.75
2023-04-02T13:21:14.782Z,1.65
2023-04-02T13:23:41.213Z,1.55
2023-04-02T13:26:13.571Z,2.85
2023-04-02T13:28:40.052Z,1.70
2023-04-02T13:31:06.612Z,1.00
2023-04-02T13:33:33.075Z,2.03
2023-04-02T13:35:59.535Z,3.00
2023-04-02T13:38:26.212Z,1.73
2023-04-02T13:40:52.725Z,1.80
2023-04-02T13:43:20.426Z,2.30
2023-04-02T13:45:51.604Z,2.25
2023-04-02T13:48:18.466Z,2.60
2023-04-02T13:50:46.427Z,1.98
2023-04-02T13:53:22.067Z,2.80
2023-04-02T13:55:48.804Z,2.88
2023-04-02T13:58:15.513Z,6.60
2023-04-02T14:00:42.256Z,5.97
2023-04-02T14:03:11.950Z,2.17
2023-04-02T14:05:38.741Z,3.33
2023-04-02T14:08:09.339Z,2.20
2023-04-02T14:10:56.892Z,1.95
2023-04-02T14:13:26.720Z,3.15
2023-04-02T14:16:00.146Z,3.00
2023-04-02T14:18:29.655Z,3.75
2023-04-02T14:21:17.313Z,3.17
2023-04-02T14:24:07.634Z,2.83
2023-04-02T14:26:46.348Z,3.35
2023-04-02T14:29:30.348Z,2.53
2023-04-02T14:32:18.279Z,2.55
2023-04-02T14:34:59.500Z,8.27
2023-04-02T14:37:29.797Z,11.73
2023-04-02T14:40:02.330Z,20.10
2023-04-02T14:42:32.535Z,21.00
2023-04-02T14:45:02.353Z,22.60
2023-04-02T14:47:36.698Z,20.00
2023-04-02T14:50:07.277Z,22.17
2023-04-02T14:52:35.045Z,22.08
2023-04-02T14:55:03.465Z,19.60
2023-04-02T14:57:32.386Z,22.83
2023-04-02T15:00:16.738Z,20.05
2023-04-02T15:02:53.049Z,23.42
2023-04-02T15:05:19.551Z,17.00
2023-04-02T15:07:52.337Z,18.35
2023-04-02T15:10:31.318Z,16.83
2023-04-02T15:12:59.863Z,18.08
2023-04-02T15:15:39.883Z,16.52
2023-04-02T15:18:14.843Z,15.75
2023-04-02T15:20:47.312Z,15.60
2023-04-02T15:23:34.103Z,16.08
2023-04-02T15:26:21.889Z,16.40
2023-04-02T15:29:01.141Z,13.98
2023-04-02T15:34:12.581Z,15.23
2023-04-02T15:36:45.637Z,13.93
2023-04-02T15:39:18.076Z,14.02
2023-04-02T15:41:53.843Z,12.32
2023-04-02T15:44:20.632Z,14.43
2023-04-02T15:46:50.682Z,12.00
2023-04-02T15:49:37.492Z,12.10
2023-04-02T15:52:15.963Z,12.48
2023-04-02T15:54:51.500Z,12.70
2023-04-02T15:57:51.161Z,10.88
2023-04-02T16:00:22.962Z,12.02
2023-04-02T16:02:53.696Z,12.85
2023-04-02T16:05:31.336Z,11.18
2023-04-02T16:08:07.156Z,10.55
2023-04-02T16:10:41.966Z,10.43
2023-04-02T16:13:36.392Z,8.48
2023-04-02T16:16:08.013Z,9.13
2023-04-02T16:18:53.475Z,8.30
2023-04-02T16:21:23.788Z,10.30
2023-04-02T16:23:50.574Z,7.90
2023-04-02T16:26:17.003Z,8.77
2023-04-02T16:28:50.582Z,8.63
2023-04-02T16:31:22.881Z,9.73
2023-04-02T16:34:02.597Z,7.30
2023-04-02T16:36:39.866Z,7.35
2023-04-02T16:39:19.821Z,8.10
2023-04-02T16:41:56.424Z,6.13
2023-04-02T16:44:27.878Z,7.90
2023-04-02T16:47:01.416Z,6.72
2023-04-02T16:49:36.079Z,7.82
2023-04-02T16:52:32.030Z,7.72
2023-04-02T16:55:11.601Z,8.38
2023-04-02T16:57:58.602Z,10.70
2023-04-02T17:00:37.604Z,8.88
2023-04-02T17:03:23.318Z,9.18
2023-04-02T17:08:24.004Z,8.80
2023-04-02T17:11:01.282Z,8.05
2023-04-02T17:13:33.720Z,6.70
2023-04-02T17:16:03.810Z,6.93
2023-04-02T17:18:30.985Z,7.43
2023-04-02T17:21:01.540Z,7.07
2023-04-02T17:23:28.202Z,7.32
2023-04-02T17:25:57.568Z,6.57
2023-04-02T17:28:29.089Z,7.32
2023-04-02T17:30:57.635Z,7.60
2023-04-02T17:33:26.908Z,8.50
2023-04-02T17:35:56.529Z,6.53
2023-04-02T17:38:35.649Z,7.43
2023-04-02T17:41:02.104Z,7.60
2023-04-02T17:43:44.768Z,6.07
2023-04-02T17:46:18.180Z,5.72
2023-04-02T17:51:22.437Z,7.57
2023-04-02T17:53:55.972Z,6.20
2023-04-02T17:59:12.646Z,6.82
2023-04-02T18:01:46.842Z,6.40
2023-04-02T18:04:13.457Z,6.55
2023-04-02T18:06:52.142Z,5.75
2023-04-02T18:09:19.253Z,6.18
2023-04-02T18:12:05.036Z,6.30
2023-04-02T18:14:31.526Z,6.95
2023-04-02T18:17:07.255Z,5.45
2023-04-02T18:19:36.552Z,6.30
2023-04-02T18:22:12.664Z,5.25
2023-04-02T18:24:51.148Z,4.80
2023-04-02T18:27:26.946Z,6.18
2023-04-02T18:29:59.293Z,5.30
2023-04-02T18:32:31.991Z,5.05
2023-04-02T18:35:21.745Z,4.38
2023-04-02T18:37:51.184Z,5.47
2023-04-02T18:40:22.041Z,5.32
2023-04-02T18:43:13.500Z,4.53
2023-04-02T18:45:49.190Z,4.80
2023-04-02T18:48:15.615Z,5.47
2023-04-02T18:50:46.792Z,7.43
2023-04-02T18:53:15.359Z,4.00
2023-04-02T18:55:48.428Z,5.93
2023-04-02T18:58:18.487Z,4.90
2023-04-02T19:00:45.376Z,4.57
2023-04-02T19:03:17.834Z,5.13
2023-04-02T19:05:51.795Z,5.80
2023-04-02T19:08:24.471Z,4.80
2023-04-02T19:10:55.802Z,4.88
2023-04-02T19:13:22.279Z,5.82
2023-04-02T19:15:48.740Z,3.88
2023-04-02T19:18:26.147Z,4.38
2023-04-02T19:21:00.900Z,4.88
2023-04-02T19:23:42.784Z,3.92
2023-04-02T19:26:12.891Z,3.33
2023-04-02T19:28:52.842Z,3.17
2023-04-02T19:31:25.074Z,5.22
2023-04-02T19:34:11.829Z,4.15
2023-04-02T19:36:44.404Z,4.20
2023-04-02T19:39:25.971Z,5.25
2023-04-02T19:41:53.811Z,3.72
2023-04-02T19:44:20.912Z,5.38
2023-04-02T19:46:47.627Z,3.05
2023-04-02T19:49:22.609Z,3.22
2023-04-02T19:51:49.520Z,3.83
2023-04-02T19:54:16.232Z,3.03
2023-04-02T19:56:43.341Z,2.70
2023-04-02T19:59:18.185Z,2.80
2023-04-02T20:01:45.608Z,4.75
2023-04-02T20:04:12.322Z,3.45
2023-04-02T20:06:38.842Z,3.65
2023-04-02T20:09:05.358Z,2.85
2023-04-02T20:11:31.866Z,4.03
2023-04-02T20:13:58.384Z,3.13
2023-04-02T20:16:24.917Z,3.60
2023-04-02T20:18:51.605Z,2.78
2023-04-02T20:21:18.271Z,2.58
2023-04-02T20:23:45.302Z,4.45
2023-04-02T20:26:12.702Z,2.67
2023-04-02T20:31:13.429Z,2.58
2023-04-02T20:33:40.120Z,3.45
2023-04-02T20:36:08.309Z,3.42
2023-04-02T20:38:35.791Z,4.45
2023-04-02T20:43:28.597Z,2.92
2023-04-02T20:45:59.367Z,6.57
2023-04-02T20:48:27.506Z,6.90
2023-04-02T20:50:54.096Z,6.97
2023-04-02T20:53:20.908Z,4.45
2023-04-02T20:55:47.369Z,3.33
2023-04-02T20:58:15.186Z,2.78
2023-04-02T21:00:41.957Z,6.57
2023-04-02T21:03:09.965Z,11.90
2023-04-02T21:05:46.187Z,13.38
2023-04-02T21:08:13.081Z,4.00
2023-04-02T21:10:39.822Z,4.18
2023-04-02T21:13:06.560Z,4.43
2023-04-02T21:15:33.423Z,4.78
2023-04-02T21:18:00.295Z,3.60
2023-04-02T21:20:27.041Z,3.92
2023-04-02T21:22:53.439Z,3.15
2023-04-02T21:25:20.234Z,7.50
2023-04-02T21:27:46.813Z,4.65
2023-04-02T21:30:13.383Z,4.90
2023-04-02T21:32:40.017Z,3.58
2023-04-02T21:35:07.674Z,6.07
2023-04-02T21:37:34.139Z,2.88
2023-04-02T21:40:00.832Z,10.02
2023-04-02T21:42:27.881Z,5.68
2023-04-02T21:44:55.936Z,5.97
2023-04-02T21:47:23.477Z,4.93
2023-04-02T21:49:49.985Z,8.68
2023-04-02T21:52:16.503Z,5.40
2023-04-02T21:54:42.991Z,5.88
2023-04-02T21:57:09.456Z,6.93
2023-04-02T21:59:35.981Z,6.60
2023-04-02T22:02:02.606Z,4.63
2023-04-02T22:04:30.708Z,9.02
2023-04-02T22:06:57.307Z,7.50
2023-04-02T22:09:25.040Z,4.75
2023-04-02T22:11:54.392Z,3.47
2023-04-02T22:14:20.887Z,4.50
2023-04-02T22:16:47.502Z,5.15
2023-04-02T22:19:15.243Z,5.30
2023-04-02T22:21:42.174Z,4.93
2023-04-02T22:24:11.119Z,5.32
2023-04-02T22:26:38.189Z,3.70
2023-04-02T22:29:04.824Z,3.25
2023-04-02T22:31:33.277Z,3.83
2023-04-02T22:34:01.059Z,3.10
2023-04-02T22:38:54.087Z,3.33
2023-04-02T22:41:22.453Z,5.78
2023-04-02T22:43:49.318Z,8.82
2023-04-02T22:46:16.954Z,4.72
2023-04-02T22:48:44.122Z,4.15
2023-04-02T22:51:11.712Z,5.95
2023-04-02T22:53:38.629Z,5.13
2023-04-02T22:56:09.397Z,5.72
2023-04-02T22:58:36.329Z,6.20
2023-04-02T23:01:08.911Z,8.27
2023-04-02T23:03:35.598Z,4.53
2023-04-02T23:06:07.300Z,4.60
2023-04-02T23:08:34.445Z,4.00
2023-04-02T23:11:02.292Z,4.22
2023-04-02T23:13:28.751Z,3.95
2023-04-02T23:15:55.425Z,4.20
2023-04-02T23:18:22.372Z,3.30
2023-04-02T23:20:48.952Z,4.32
2023-04-02T23:23:15.509Z,3.47
2023-04-02T23:25:42.151Z,2.75
2023-04-02T23:28:09.580Z,4.18
2023-04-02T23:30:36.229Z,3.92
2023-04-02T23:33:04.599Z,3.70
2023-04-02T23:35:31.219Z,3.63
2023-04-02T23:37:57.900Z,2.33
2023-04-02T23:40:24.300Z,3.15
2023-04-02T23:42:50.782Z,3.22
2023-04-02T23:45:17.724Z,5.22
2023-04-02T23:47:44.316Z,3.53
2023-04-02T23:50:10.914Z,4.05
2023-04-02T23:52:37.433Z,3.58
2023-04-02T23:55:04.357Z,3.05
2023-04-02T23:57:30.817Z,3.88
2023-04-02T23:59:57.305Z,3.25
